createdAt,value
2017-08-11T00:00:03.079Z,1019.26
2017-08-11T00:05:02.752Z,1019.21
2017-08-11T00:10:03.320Z,1019.19
2017-08-11T00:15:02.713Z,1019.12
2017-08-11T00:20:03.019Z,1019.1
2017-08-11T00:25:03.350Z,1019.03
2017-08-11T00:30:02.818Z,1018.98
2017-08-11T00:35:03.121Z,1018.85
2017-08-11T00:40:02.528Z,1018.85
2017-08-11T00:45:02.879Z,1018.84
2017-08-11T00:50:03.132Z,1018.78
2017-08-11T00:55:03.416Z,1018.68
2017-08-11T01:00:02.803Z,1018.73
2017-08-11T01:05:03.272Z,1018.74
2017-08-11T01:10:02.744Z,1018.65
2017-08-11T01:15:03.064Z,1018.68
2017-08-11T01:20:03.502Z,1018.63
2017-08-11T01:25:02.859Z,1018.63
2017-08-11T01:30:03.124Z,1018.62
2017-08-11T01:35:03.467Z,1018.59
2017-08-11T01:40:02.893Z,1018.6
2017-08-11T01:45:03.183Z,1018.46
2017-08-11T01:50:03.543Z,1018.38
2017-08-11T01:55:02.938Z,1018.48
2017-08-11T02:00:03.230Z,1018.39
2017-08-11T02:05:02.569Z,1018.3
2017-08-11T02:15:02.663Z,1018.28
2017-08-11T02:20:03.156Z,1018.19
2017-08-11T02:25:03.435Z,1018.19
2017-08-11T02:30:02.780Z,1018.24
2017-08-11T02:35:03.172Z,1018.2
2017-08-11T02:40:02.611Z,1018.4
2017-08-11T02:45:02.890Z,1018.33
2017-08-11T02:50:03.316Z,1018.29
2017-08-11T02:55:02.597Z,1018.35
2017-08-11T03:00:03.035Z,1018.38
2017-08-11T03:05:03.365Z,1018.35
2017-08-11T03:10:02.832Z,1018.39
2017-08-11T03:15:03.128Z,1018.28
2017-08-11T03:20:03.450Z,1018.27
2017-08-11T03:25:02.881Z,1018.32
2017-08-11T03:30:03.461Z,1018.26
2017-08-11T03:35:02.883Z,1018.11
2017-08-11T03:40:03.231Z,1018.06
2017-08-11T03:45:02.904Z,1018.11
2017-08-11T03:50:03.247Z,1018.12
2017-08-11T03:55:02.578Z,1017.96
2017-08-11T04:00:02.979Z,1017.96
2017-08-11T04:05:03.332Z,1017.95
2017-08-11T04:10:02.708Z,1017.92
2017-08-11T04:15:03.122Z,1017.9
2017-08-11T04:20:02.643Z,1017.81
2017-08-11T04:25:03.008Z,1017.72
2017-08-11T04:30:03.028Z,1017.61
2017-08-11T04:35:03.465Z,1017.61
2017-08-11T04:40:02.966Z,1017.54
2017-08-11T04:45:03.375Z,1017.48
2017-08-11T04:50:02.727Z,1017.52
2017-08-11T04:55:03.212Z,1017.48
2017-08-11T05:00:02.748Z,1017.47
2017-08-11T05:05:03.073Z,1017.36
2017-08-11T05:10:02.542Z,1017.42
2017-08-11T05:15:02.964Z,1017.47
2017-08-11T05:20:03.436Z,1017.53
2017-08-11T05:25:02.772Z,1017.61
2017-08-11T05:30:03.246Z,1017.55
2017-08-11T05:35:02.562Z,1017.64
2017-08-11T05:40:02.958Z,1017.83
2017-08-11T05:45:03.354Z,1017.76
2017-08-11T05:50:02.744Z,1017.6
2017-08-11T05:55:03.071Z,1017.58
2017-08-11T06:00:03.659Z,1017.64
2017-08-11T06:05:03.141Z,1017.67
2017-08-11T06:10:02.618Z,1017.71
2017-08-11T06:15:03.041Z,1017.73
2017-08-11T06:20:03.471Z,1017.78
2017-08-11T06:25:02.909Z,1017.86
2017-08-11T06:30:03.233Z,1017.84
2017-08-11T06:35:02.766Z,1017.88
2017-08-11T06:40:03.331Z,1017.81
2017-08-11T06:45:02.724Z,1017.89
2017-08-11T06:50:03.176Z,1017.9
2017-08-11T06:55:03.502Z,1017.78
2017-08-11T07:00:02.914Z,1017.81
2017-08-11T07:05:03.370Z,1017.8
2017-08-11T07:10:02.771Z,1017.71
2017-08-11T07:15:03.250Z,1017.76
2017-08-11T07:20:02.822Z,1017.8
2017-08-11T07:25:03.170Z,1017.86
2017-08-11T07:30:02.591Z,1017.9
2017-08-11T07:35:03.074Z,1017.87
2017-08-11T07:40:02.568Z,1017.9
2017-08-11T07:45:02.907Z,1017.93
2017-08-11T07:50:03.308Z,1017.89
2017-08-11T07:55:02.645Z,1017.87
2017-08-11T08:00:03.045Z,1017.8
2017-08-11T08:05:03.362Z,1017.78
2017-08-11T08:10:02.914Z,1017.69
2017-08-11T08:15:03.256Z,1017.61
2017-08-11T08:20:02.684Z,1017.56
2017-08-11T08:25:03.005Z,1017.54
2017-08-11T08:30:03.468Z,1017.53
2017-08-11T08:35:02.819Z,1017.45
2017-08-11T08:40:03.291Z,1017.49
2017-08-11T08:45:02.598Z,1017.47
2017-08-11T08:50:02.915Z,1017.51
2017-08-11T08:55:03.248Z,1017.5
2017-08-11T09:00:02.632Z,1017.47
2017-08-11T09:05:03.015Z,1017.47
2017-08-11T09:10:02.488Z,1017.45
2017-08-11T09:15:02.829Z,1017.45
2017-08-11T09:20:03.265Z,1017.47
2017-08-11T09:25:02.745Z,1017.41
2017-08-11T09:30:03.219Z,1017.26
2017-08-11T09:35:02.569Z,1017.27
2017-08-11T09:40:03.077Z,1017.19
2017-08-11T09:45:02.532Z,1017.36
2017-08-11T09:50:02.952Z,1017.57
2017-08-11T09:55:03.357Z,1017.61
2017-08-11T10:00:02.831Z,1017.66
2017-08-11T10:05:03.170Z,1017.76
2017-08-11T10:10:02.668Z,1017.75
2017-08-11T10:15:03.099Z,1017.74
2017-08-11T10:20:03.464Z,1017.74
2017-08-11T10:25:02.826Z,1017.69
2017-08-11T10:30:03.300Z,1017.72
2017-08-11T10:35:02.637Z,1017.67
2017-08-11T10:40:03.095Z,1017.71
2017-08-11T10:45:03.408Z,1017.56
2017-08-11T10:50:02.700Z,1017.53
2017-08-11T10:55:02.998Z,1017.4
2017-08-11T11:00:03.396Z,1017.43
2017-08-11T11:05:02.909Z,1017.45
2017-08-11T11:10:03.396Z,1017.36
2017-08-11T11:15:02.712Z,1017.35
2017-08-11T11:20:03.064Z,1017.36
2017-08-11T11:25:03.383Z,1017.31
2017-08-11T11:30:02.676Z,1017.13
2017-08-11T11:35:03.141Z,1017.06
2017-08-11T11:40:03.475Z,1017.08
2017-08-11T11:45:02.803Z,1017.03
2017-08-11T11:50:03.131Z,1017.05
2017-08-11T11:55:03.466Z,1017
2017-08-11T12:00:02.787Z,1016.98
2017-08-11T12:05:03.007Z,1016.84
2017-08-11T12:10:03.311Z,1016.79
2017-08-11T12:15:02.621Z,1016.74
2017-08-11T12:20:03.027Z,1016.8
2017-08-11T12:25:03.381Z,1016.78
2017-08-11T12:30:02.821Z,1016.72
2017-08-11T12:35:03.307Z,1016.68
2017-08-11T12:40:02.781Z,1016.68
2017-08-11T12:45:03.300Z,1016.66
2017-08-11T12:50:02.774Z,1016.65
2017-08-11T12:55:03.238Z,1016.64
2017-08-11T13:00:02.646Z,1016.54
2017-08-11T13:05:02.969Z,1016.59
2017-08-11T13:10:03.418Z,1016.67
2017-08-11T13:15:02.971Z,1016.66
2017-08-11T13:20:03.440Z,1016.77
2017-08-11T13:25:02.895Z,1016.71
2017-08-11T13:30:03.617Z,1016.72
2017-08-11T13:35:03.016Z,1016.74
2017-08-11T13:40:03.404Z,1016.58
2017-08-11T13:45:02.677Z,1016.63
2017-08-11T13:50:03.005Z,1016.59
2017-08-11T13:55:03.301Z,1016.53
2017-08-11T14:00:02.618Z,1016.35
2017-08-11T14:05:02.947Z,1016.18
2017-08-11T14:10:02.522Z,1016.2
2017-08-11T14:15:03.003Z,1016.24
2017-08-11T14:20:03.332Z,1016.29
2017-08-11T14:25:02.592Z,1016.28
2017-08-11T14:30:02.928Z,1016.4
2017-08-11T14:35:03.326Z,1016.37
2017-08-11T14:40:02.825Z,1016.32
2017-08-11T14:45:03.385Z,1016.36
2017-08-11T14:50:02.860Z,1016.42
2017-08-11T14:55:03.423Z,1016.42
2017-08-11T15:00:02.779Z,1016.33
2017-08-11T15:05:03.094Z,1016.24
2017-08-11T15:10:03.479Z,1016.25
2017-08-11T15:15:02.847Z,1016.33
2017-08-11T15:20:03.300Z,1016.31
2017-08-11T15:25:02.592Z,1016.27
2017-08-11T15:30:03.051Z,1016.27
2017-08-11T15:35:03.400Z,1016.28
2017-08-11T15:45:03.017Z,1016.19
2017-08-11T15:50:03.319Z,1016.14
2017-08-11T15:55:02.632Z,1016.21
2017-08-11T16:00:03.078Z,1016.16
2017-08-11T16:01:42.874Z,1016.16
2017-08-11T16:04:19.299Z,1016.12
2017-08-11T16:05:02.722Z,1016.12
2017-08-11T16:10:30.010Z,1016.09
2017-08-11T16:12:22.347Z,1016.11
2017-08-11T16:13:01.456Z,1016.11
2017-08-11T16:15:02.817Z,1016.04
2017-08-11T16:20:03.423Z,1015.97
2017-08-11T16:25:02.995Z,1016.04
2017-08-11T16:30:03.580Z,1016.06
2017-08-11T16:45:02.937Z,1015.94
2017-08-11T16:50:03.566Z,1015.91
2017-08-11T16:55:03.325Z,1015.84
2017-08-11T17:00:02.798Z,1015.73
2017-08-11T17:05:03.462Z,1015.67
2017-08-11T17:10:03.048Z,1015.6
2017-08-11T17:15:02.926Z,1015.5
2017-08-11T17:20:03.635Z,1015.48
2017-08-11T17:25:03.219Z,1015.46
2017-08-11T17:30:02.728Z,1015.34
2017-08-11T17:35:03.279Z,1015.36
2017-08-11T17:40:02.845Z,1015.36
2017-08-11T17:45:03.275Z,1015.29
2017-08-11T17:50:02.729Z,1015.24
2017-08-11T17:55:03.463Z,1015.24
2017-08-11T18:00:02.874Z,1015.23
2017-08-11T18:05:03.296Z,1015.26
2017-08-11T18:10:02.940Z,1015.31
2017-08-11T18:15:03.610Z,1015.31
2017-08-11T18:20:02.796Z,1015.28
2017-08-11T18:25:03.179Z,1015.2
2017-08-11T18:30:02.740Z,1015.12
2017-08-11T18:35:03.271Z,1015.07
2017-08-11T18:40:02.754Z,1014.92
2017-08-11T18:45:03.508Z,1014.85
2017-08-11T18:50:03.066Z,1014.8
2017-08-11T18:55:03.762Z,1014.75
2017-08-11T19:00:03.139Z,1014.83
2017-08-11T19:05:03.743Z,1014.81
2017-08-11T19:10:03.224Z,1014.84
2017-08-11T19:15:02.713Z,1014.95
2017-08-11T19:20:03.387Z,1015.01
2017-08-11T19:25:02.799Z,1015.04
2017-08-11T19:30:03.204Z,1015.08
2017-08-11T19:35:03.771Z,1015.12
2017-08-11T19:40:03.457Z,1015.15
2017-08-11T19:45:03.058Z,1015.09
2017-08-11T19:50:02.706Z,1015.11
2017-08-11T19:55:03.301Z,1015.03
2017-08-11T20:00:02.930Z,1015.03
2017-08-11T20:05:03.542Z,1015.11
2017-08-11T20:10:03.342Z,1015.05
2017-08-11T20:15:02.910Z,1015
2017-08-11T20:20:03.509Z,1014.94
2017-08-11T20:25:02.965Z,1014.93
2017-08-11T20:30:03.560Z,1014.86
2017-08-11T20:35:03.032Z,1014.88
2017-08-11T20:40:02.647Z,1014.89
2017-08-11T20:45:03.254Z,1014.94
2017-08-11T20:50:02.695Z,1014.96
2017-08-11T20:55:03.163Z,1014.96
2017-08-11T21:00:03.703Z,1015
2017-08-11T21:05:03.176Z,1015.14
2017-08-11T21:10:02.750Z,1015.08
2017-08-11T21:15:03.442Z,1015.07
2017-08-11T21:20:02.885Z,1015.08
2017-08-11T21:25:03.450Z,1015.08
2017-08-11T21:30:03.242Z,1015.17
2017-08-11T21:35:02.771Z,1015.15
2017-08-11T21:40:03.627Z,1015.27
2017-08-11T21:45:03.343Z,1015.28
2017-08-11T21:50:02.861Z,1015.19
2017-08-11T21:55:03.460Z,1015.14
2017-08-11T22:00:02.840Z,1015.2
2017-08-11T22:05:03.386Z,1015.11
2017-08-11T22:10:02.940Z,1015.14
2017-08-11T22:15:03.491Z,1015.08
2017-08-11T22:20:03.247Z,1015.14
2017-08-11T22:25:02.852Z,1015.14
2017-08-11T22:30:03.386Z,1015.15
2017-08-11T22:35:02.790Z,1015.19
2017-08-11T22:40:03.302Z,1015.26
2017-08-11T22:45:02.888Z,1015.19
2017-08-11T22:50:03.460Z,1015.18
2017-08-11T22:55:03.052Z,1015.11
2017-08-11T23:00:03.941Z,1015.11
2017-08-11T23:05:03.565Z,1015.05
2017-08-11T23:10:03.246Z,1015.16
2017-08-11T23:15:02.654Z,1015.14
2017-08-11T23:20:03.305Z,1015.07
2017-08-11T23:25:03.035Z,1015.12
2017-08-11T23:30:03.608Z,1015.03
2017-08-11T23:35:03.240Z,1015.09
2017-08-11T23:40:02.929Z,1014.96
2017-08-11T23:45:03.482Z,1014.92
2017-08-11T23:50:03.080Z,1014.9
2017-08-11T23:55:03.612Z,1014.91
